Time;durP1;ratioP1;P1;durP2;ratioP2;P2;SDS_P1;SDS_P2;PMS_P1;PMS_P2;Temp;Humidity;BMP_temperature;BMP_pressure;BME280_temperature;BME280_humidity;BME280_pressure;Samples;Min_cycle;Max_cycle;Signal;HPM_P1;HPM_P2
2022/03/26 00:01:19;;;;;;;;;;;21.00;39.10;;;;;;5076511;28;19970;-45
2022/03/26 00:03:46;;;;;;;;;;;21.00;39.10;;;;;;5076298;28;19924;-40
2022/03/26 00:06:13;;;;;;;;;;;21.00;39.10;;;;;;5074568;28;19959;-43
2022/03/26 00:08:40;;;;;;;;;;;21.00;39.10;;;;;;5076635;28;20322;-42
2022/03/26 00:11:07;;;;;;;;;;;21.00;39.10;;;;;;5076032;28;19960;-41
2022/03/26 00:13:34;;;;;;;;;;;21.00;39.10;;;;;;5075921;28;20376;-41
2022/03/26 00:16:01;;;;;;;;;;;21.00;39.10;;;;;;5076229;28;19928;-38
2022/03/26 00:18:29;;;;;;;;;;;21.00;39.10;;;;;;5076220;28;20015;-42
2022/03/26 00:20:55;;;;;;;;;;;21.00;39.10;;;;;;5074290;28;19967;-41
2022/03/26 00:23:22;;;;;;;;;;;21.00;39.10;;;;;;5075922;28;19946;-43
2022/03/26 00:25:49;;;;;;;;;;;21.00;39.10;;;;;;5076648;28;20011;-40
2022/03/26 00:28:16;;;;;;;;;;;21.00;39.10;;;;;;5075705;28;19966;-39
2022/03/26 00:30:43;;;;;;;;;;;21.00;39.10;;;;;;5075109;28;19931;-40
2022/03/26 00:33:10;;;;;;;;;;;20.90;39.10;;;;;;5075249;28;19964;-40
2022/03/26 00:35:37;;;;;;;;;;;20.90;39.10;;;;;;5074391;28;19978;-41
2022/03/26 00:38:04;;;;;;;;;;;20.90;39.10;;;;;;5075871;28;20015;-39
2022/03/26 00:40:31;;;;;;;;;;;20.90;39.10;;;;;;5075460;28;19975;-40
2022/03/26 00:42:59;;;;;;;;;;;20.90;39.10;;;;;;5076254;28;20028;-43
2022/03/26 00:45:28;;;;;;;;;;;21.00;39.10;;;;;;5075384;28;19928;-42
2022/03/26 00:47:56;;;;;;;;;;;20.90;39.10;;;;;;5075629;28;20359;-42
2022/03/26 00:50:23;;;;;;;;;;;20.90;39.10;;;;;;5074714;28;20326;-43
2022/03/26 00:52:51;;;;;;;;;;;20.90;39.10;;;;;;5075320;28;20042;-44
2022/03/26 00:55:18;;;;;;;;;;;20.90;39.10;;;;;;5075487;28;19924;-40
2022/03/26 00:57:45;;;;;;;;;;;20.90;39.10;;;;;;5075450;28;19974;-39
2022/03/26 01:00:13;;;;;;;;;;;20.90;39.10;;;;;;5075424;28;19924;-38
2022/03/26 01:02:40;;;;;;;;;;;20.90;39.10;;;;;;5075070;28;20380;-38
2022/03/26 01:05:07;;;;;;;;;;;20.90;39.10;;;;;;5073767;28;19948;-40
2022/03/26 01:07:34;;;;;;;;;;;20.90;39.10;;;;;;5074915;28;19925;-46
2022/03/26 01:10:01;;;;;;;;;;;20.90;39.10;;;;;;5075198;28;20295;-45
2022/03/26 01:12:28;;;;;;;;;;;20.90;39.10;;;;;;5075070;28;19925;-39
2022/03/26 01:14:55;;;;;;;;;;;20.90;39.10;;;;;;5075061;28;19928;-40
2022/03/26 01:17:22;;;;;;;;;;;20.90;39.10;;;;;;5075052;28;20027;-39
2022/03/26 01:19:50;;;;;;;;;;;20.90;39.20;;;;;;5074980;28;19963;-40
2022/03/26 01:22:17;;;;;;;;;;;20.90;39.10;;;;;;5072779;28;19924;-40
2022/03/26 01:24:44;;;;;;;;;;;20.90;39.10;;;;;;5074637;28;20043;-39
2022/03/26 01:27:11;;;;;;;;;;;20.90;39.10;;;;;;5074845;28;19924;-38
2022/03/26 01:29:40;;;;;;;;;;;20.90;39.10;;;;;;5074497;28;19975;-39
2022/03/26 01:32:08;;;;;;;;;;;20.90;39.10;;;;;;5074763;28;19974;-38
2022/03/26 01:34:35;;;;;;;;;;;20.90;39.10;;;;;;5074480;28;20059;-39
2022/03/26 01:37:03;;;;;;;;;;;20.90;39.10;;;;;;5072934;28;20031;-44
2022/03/26 01:39:30;;;;;;;;;;;20.90;39.10;;;;;;5074629;28;19924;-46
2022/03/26 01:42:01;;;;;;;;;;;20.90;39.10;;;;;;5074583;28;19925;-46
2022/03/26 01:44:28;;;;;;;;;;;20.90;39.10;;;;;;5075344;28;19971;-43
2022/03/26 01:46:55;;;;;;;;;;;20.90;39.10;;;;;;5074183;28;20446;-44
2022/03/26 01:49:22;;;;;;;;;;;20.90;39.10;;;;;;5074433;28;20340;-46
2022/03/26 01:51:49;;;;;;;;;;;20.90;39.10;;;;;;5072344;28;19972;-44
2022/03/26 01:54:16;;;;;;;;;;;20.90;39.10;;;;;;5074275;28;19986;-45
2022/03/26 01:56:43;;;;;;;;;;;20.90;39.20;;;;;;5074342;28;20019;-47
2022/03/26 01:59:11;;;;;;;;;;;20.90;39.20;;;;;;5074259;28;19978;-43
2022/03/26 02:01:38;;;;;;;;;;;20.90;39.80;;;;;;5073956;28;20351;-45
2022/03/26 02:04:08;;;;;;;;;;;20.90;39.20;;;;;;5074079;28;19932;-44
2022/03/26 02:06:37;;;;;;;;;;;20.90;39.20;;;;;;5072151;28;20419;-45
2022/03/26 02:09:05;;;;;;;;;;;20.90;39.20;;;;;;5073807;28;20335;-41
2022/03/26 02:11:33;;;;;;;;;;;20.90;39.20;;;;;;5074105;28;20338;-43
2022/03/26 02:14:02;;;;;;;;;;;20.90;39.20;;;;;;5073791;28;19963;-46
2022/03/26 02:16:29;;;;;;;;;;;20.80;39.10;;;;;;5074091;28;19925;-46
2022/03/26 02:18:57;;;;;;;;;;;20.80;39.20;;;;;;5074600;28;19925;-46
2022/03/26 02:21:25;;;;;;;;;;;20.80;39.10;;;;;;5071996;28;20305;-47
2022/03/26 02:23:52;;;;;;;;;;;20.90;39.20;;;;;;5073947;28;19931;-42
2022/03/26 02:26:25;;;;;;;;;;;20.90;39.20;;;;;;5072982;28;20214;-47
2022/03/26 02:28:53;;;;;;;;;;;20.90;39.20;;;;;;5073948;28;20015;-41
2022/03/26 02:31:21;;;;;;;;;;;20.90;39.20;;;;;;5073583;28;19972;-44
2022/03/26 02:33:48;;;;;;;;;;;20.80;39.10;;;;;;5073643;28;19986;-45
2022/03/26 02:36:15;;;;;;;;;;;20.80;39.10;;;;;;5072066;28;19932;-46
2022/03/26 02:38:42;;;;;;;;;;;20.80;39.20;;;;;;5073745;28;19947;-39
2022/03/26 02:41:09;;;;;;;;;;;20.90;39.20;;;;;;5073489;28;19925;-39
2022/03/26 02:43:36;;;;;;;;;;;20.90;39.20;;;;;;5073755;28;20003;-40
2022/03/26 02:46:03;;;;;;;;;;;20.90;39.20;;;;;;5055666;28;19971;-47
2022/03/26 02:48:30;;;;;;;;;;;20.80;39.10;;;;;;5073394;28;19932;-39
2022/03/26 02:50:57;;;;;;;;;;;20.80;39.20;;;;;;5072290;28;19924;-43
2022/03/26 02:53:24;;;;;;;;;;;20.80;39.20;;;;;;5053338;28;19925;-41
2022/03/26 02:55:52;;;;;;;;;;;20.80;39.20;;;;;;5057003;28;20027;-47
2022/03/26 02:58:19;;;;;;;;;;;20.80;39.20;;;;;;5057424;28;20396;-48
2022/03/26 03:00:46;;;;;;;;;;;20.80;39.20;;;;;;5057633;28;20020;-41
2022/03/26 03:03:14;;;;;;;;;;;20.80;39.20;;;;;;5056326;28;20350;-40
2022/03/26 03:05:41;;;;;;;;;;;20.80;39.20;;;;;;5057593;28;19932;-43
2022/03/26 03:08:08;;;;;;;;;;;20.80;39.20;;;;;;5072559;28;19967;-46
2022/03/26 03:10:35;;;;;;;;;;;20.80;39.20;;;;;;5077501;28;19929;-43
2022/03/26 03:13:02;;;;;;;;;;;20.80;39.20;;;;;;5077887;28;19925;-41
2022/03/26 03:15:29;;;;;;;;;;;20.80;39.20;;;;;;5077386;28;19974;-41
2022/03/26 03:17:56;;;;;;;;;;;20.80;39.20;;;;;;5077341;28;20342;-46
2022/03/26 03:20:23;;;;;;;;;;;20.80;39.20;;;;;;5077304;28;19974;-39
2022/03/26 03:22:50;;;;;;;;;;;20.80;39.20;;;;;;5075197;28;19925;-41
2022/03/26 03:25:18;;;;;;;;;;;20.80;39.20;;;;;;5076899;28;19924;-39
2022/03/26 03:27:45;;;;;;;;;;;20.80;39.20;;;;;;5076804;28;19925;-39
2022/03/26 03:30:12;;;;;;;;;;;20.80;39.20;;;;;;5077127;28;19985;-38
2022/03/26 03:32:39;;;;;;;;;;;20.80;39.20;;;;;;5077029;28;19960;-38
2022/03/26 03:35:06;;;;;;;;;;;20.80;39.20;;;;;;5076481;28;19929;-40
2022/03/26 03:37:36;;;;;;;;;;;20.80;39.20;;;;;;5075108;28;19980;-39
2022/03/26 03:40:04;;;;;;;;;;;20.80;39.20;;;;;;5076618;28;19930;-39
2022/03/26 03:42:32;;;;;;;;;;;20.80;39.20;;;;;;5076872;28;20369;-38
2022/03/26 03:44:59;;;;;;;;;;;20.80;39.20;;;;;;5076544;28;19978;-39
2022/03/26 03:47:26;;;;;;;;;;;20.80;39.20;;;;;;5076774;28;19971;-40
2022/03/26 03:49:53;;;;;;;;;;;20.80;39.20;;;;;;5076726;28;19924;-38
2022/03/26 03:52:23;;;;;;;;;;;20.80;39.30;;;;;;5074788;28;19924;-39
2022/03/26 03:54:50;;;;;;;;;;;20.80;39.30;;;;;;5076239;28;19947;-39
2022/03/26 03:57:18;;;;;;;;;;;20.80;39.30;;;;;;5076530;28;20042;-41
2022/03/26 03:59:45;;;;;;;;;;;20.80;39.30;;;;;;5076292;28;20023;-40
2022/03/26 04:02:12;;;;;;;;;;;20.80;39.20;;;;;;5076220;28;19931;-40
2022/03/26 04:04:42;;;;;;;;;;;20.80;39.20;;;;;;5076030;28;19925;-39
2022/03/26 04:07:09;;;;;;;;;;;20.80;39.20;;;;;;5073609;28;20858;-39
2022/03/26 04:09:36;;;;;;;;;;;20.80;39.30;;;;;;5076433;28;19935;-39
2022/03/26 04:12:04;;;;;;;;;;;20.80;39.30;;;;;;5076068;28;19978;-41
2022/03/26 04:14:32;;;;;;;;;;;20.80;39.30;;;;;;5076268;28;19925;-39
2022/03/26 04:16:59;;;;;;;;;;;20.80;39.30;;;;;;5075948;28;19924;-42
2022/03/26 04:19:27;;;;;;;;;;;20.80;39.30;;;;;;5076198;28;19931;-41
2022/03/26 04:21:57;;;;;;;;;;;20.80;39.30;;;;;;5074967;28;19924;-44
2022/03/26 04:24:24;;;;;;;;;;;20.80;39.30;;;;;;5075928;28;19960;-40
2022/03/26 04:26:51;;;;;;;;;;;20.80;39.30;;;;;;5075788;28;19928;-41
2022/03/26 04:29:19;;;;;;;;;;;20.80;39.30;;;;;;5076017;28;19924;-40
2022/03/26 04:31:46;;;;;;;;;;;20.80;39.30;;;;;;5076014;28;19975;-41
2022/03/26 04:34:13;;;;;;;;;;;20.70;39.20;;;;;;5075795;28;19931;-41
2022/03/26 04:36:40;;;;;;;;;;;20.70;39.20;;;;;;5076728;28;20312;-40
2022/03/26 04:39:08;;;;;;;;;;;20.70;39.20;;;;;;5074228;28;19924;-39
2022/03/26 04:41:35;;;;;;;;;;;20.70;39.20;;;;;;5075786;28;19924;-40
2022/03/26 04:44:02;;;;;;;;;;;20.80;39.30;;;;;;5075753;28;19960;-40
2022/03/26 04:46:29;;;;;;;;;;;20.70;39.20;;;;;;5075417;28;19950;-40
2022/03/26 04:48:57;;;;;;;;;;;20.70;39.20;;;;;;5075364;28;19924;-41
2022/03/26 04:51:24;;;;;;;;;;;20.70;39.20;;;;;;5075471;28;19968;-40
2022/03/26 04:53:51;;;;;;;;;;;20.70;39.20;;;;;;5073897;28;20343;-39
2022/03/26 04:56:18;;;;;;;;;;;20.70;39.20;;;;;;5075514;28;20347;-39
2022/03/26 04:58:45;;;;;;;;;;;20.70;39.20;;;;;;5075102;28;19932;-46
2022/03/26 05:01:12;;;;;;;;;;;20.70;39.20;;;;;;5075099;28;19997;-47
2022/03/26 05:03:39;;;;;;;;;;;20.70;39.20;;;;;;5075232;28;20353;-45
2022/03/26 05:06:06;;;;;;;;;;;20.80;39.30;;;;;;5075301;28;19954;-47
2022/03/26 05:08:33;;;;;;;;;;;20.70;39.80;;;;;;5073796;28;19924;-51
2022/03/26 05:11:00;;;;;;;;;;;20.70;39.20;;;;;;5075965;28;20327;-44
2022/03/26 05:13:27;;;;;;;;;;;20.70;39.20;;;;;;5075111;28;19946;-44
2022/03/26 05:15:54;;;;;;;;;;;20.70;39.20;;;;;;5074823;28;20273;-45
2022/03/26 05:18:25;;;;;;;;;;;20.70;39.20;;;;;;5074486;28;20447;-45
2022/03/26 05:20:55;;;;;;;;;;;20.80;39.30;;;;;;5074340;28;19924;-48
2022/03/26 05:23:24;;;;;;;;;;;20.80;39.30;;;;;;5067640;28;19947;-41
2022/03/26 05:25:51;;;;;;;;;;;20.80;39.30;;;;;;5055763;28;20272;-48
2022/03/26 05:28:18;;;;;;;;;;;20.80;39.20;;;;;;5054895;28;19929;-40
2022/03/26 05:30:47;;;;;;;;;;;20.80;39.20;;;;;;5054562;28;19925;-41
2022/03/26 05:33:14;;;;;;;;;;;20.80;39.20;;;;;;5054656;28;19925;-40
2022/03/26 05:35:41;;;;;;;;;;;20.80;39.20;;;;;;5054365;28;19972;-40
2022/03/26 05:38:08;;;;;;;;;;;20.80;39.20;;;;;;5056674;28;19932;-40
2022/03/26 05:40:35;;;;;;;;;;;20.80;39.20;;;;;;5074331;28;20015;-44
2022/03/26 05:43:02;;;;;;;;;;;20.80;39.20;;;;;;5074304;28;19931;-40
2022/03/26 05:45:30;;;;;;;;;;;20.80;39.20;;;;;;5074568;28;19968;-39
2022/03/26 05:48:00;;;;;;;;;;;20.80;39.10;;;;;;5074181;28;20392;-40
2022/03/26 05:50:28;;;;;;;;;;;20.80;39.10;;;;;;5074461;28;19978;-41
2022/03/26 05:52:55;;;;;;;;;;;20.80;39.10;;;;;;5073082;28;19925;-42
2022/03/26 05:55:23;;;;;;;;;;;20.80;39.10;;;;;;5074101;28;19928;-41
2022/03/26 05:57:50;;;;;;;;;;;20.80;39.10;;;;;;5073839;28;19924;-40
2022/03/26 06:00:17;;;;;;;;;;;20.80;39.10;;;;;;5074298;28;20333;-43
2022/03/26 06:02:44;;;;;;;;;;;20.80;39.10;;;;;;5074152;28;19960;-44
2022/03/26 06:05:11;;;;;;;;;;;20.90;39.10;;;;;;5073906;28;19931;-40
2022/03/26 06:07:38;;;;;;;;;;;20.80;39.00;;;;;;5074215;28;20042;-44
2022/03/26 06:10:05;;;;;;;;;;;20.80;39.00;;;;;;5072595;28;19924;-42
2022/03/26 06:12:32;;;;;;;;;;;20.80;39.00;;;;;;5074137;28;19967;-39
2022/03/26 06:14:59;;;;;;;;;;;20.80;39.00;;;;;;5074013;28;19936;-40
2022/03/26 06:17:26;;;;;;;;;;;20.90;39.00;;;;;;5074067;28;19928;-40
2022/03/26 06:19:53;;;;;;;;;;;20.90;39.00;;;;;;5073692;28;20342;-47
2022/03/26 06:22:20;;;;;;;;;;;20.90;39.00;;;;;;5073347;28;20372;-41
2022/03/26 06:24:47;;;;;;;;;;;20.90;39.00;;;;;;5060117;28;19967;-40
2022/03/26 06:27:15;;;;;;;;;;;20.90;39.00;;;;;;5053534;28;20011;-39
2022/03/26 06:29:42;;;;;;;;;;;20.90;38.90;;;;;;5053208;28;19925;-39
2022/03/26 06:32:09;;;;;;;;;;;20.90;38.90;;;;;;5053521;28;20007;-46
2022/03/26 06:34:36;;;;;;;;;;;20.90;38.90;;;;;;5053168;28;19987;-44
2022/03/26 06:37:03;;;;;;;;;;;20.90;38.90;;;;;;5053688;28;19925;-40
2022/03/26 06:39:30;;;;;;;;;;;20.90;38.90;;;;;;5051829;28;19968;-42
2022/03/26 06:41:57;;;;;;;;;;;20.90;38.90;;;;;;5053618;28;19975;-40
2022/03/26 06:44:24;;;;;;;;;;;20.90;38.90;;;;;;5053696;28;19925;-39
2022/03/26 06:46:51;;;;;;;;;;;20.90;38.80;;;;;;5053378;28;20007;-45
2022/03/26 06:49:18;;;;;;;;;;;20.90;38.80;;;;;;5053414;28;19974;-46
2022/03/26 06:51:45;;;;;;;;;;;20.90;38.80;;;;;;5053482;28;19963;-40
2022/03/26 06:54:12;;;;;;;;;;;21.00;38.90;;;;;;5058137;28;19971;-40
2022/03/26 06:56:39;;;;;;;;;;;21.00;38.90;;;;;;5073311;28;19964;-42
2022/03/26 06:59:06;;;;;;;;;;;21.00;38.80;;;;;;5073611;28;19975;-41
2022/03/26 07:01:33;;;;;;;;;;;21.00;38.90;;;;;;5073264;28;19979;-42
2022/03/26 07:04:00;;;;;;;;;;;21.00;38.80;;;;;;5073403;28;19986;-40
2022/03/26 07:06:27;;;;;;;;;;;21.00;38.80;;;;;;5073446;28;19925;-40
2022/03/26 07:08:54;;;;;;;;;;;21.00;38.80;;;;;;5071447;28;19925;-39
2022/03/26 07:11:21;;;;;;;;;;;21.00;38.80;;;;;;5073178;28;19976;-39
2022/03/26 07:13:48;;;;;;;;;;;21.00;38.70;;;;;;5073473;28;19924;-41
2022/03/26 07:16:15;;;;;;;;;;;21.00;38.80;;;;;;5073369;28;19970;-40
2022/03/26 07:18:42;;;;;;;;;;;21.00;38.70;;;;;;5073959;28;19974;-40
2022/03/26 07:21:09;;;;;;;;;;;21.00;38.70;;;;;;5072969;28;20337;-40
2022/03/26 07:23:36;;;;;;;;;;;21.00;38.70;;;;;;5073429;28;19925;-40
2022/03/26 07:26:04;;;;;;;;;;;21.00;38.70;;;;;;5071458;28;19976;-41
2022/03/26 07:28:31;;;;;;;;;;;21.10;38.70;;;;;;5073295;28;19990;-41
2022/03/26 07:30:58;;;;;;;;;;;21.10;38.70;;;;;;5072986;28;20360;-40
2022/03/26 07:33:24;;;;;;;;;;;21.10;38.70;;;;;;5072848;28;20018;-40
2022/03/26 07:35:51;;;;;;;;;;;21.10;38.70;;;;;;5072860;28;19925;-39
2022/03/26 07:38:18;;;;;;;;;;;21.10;38.70;;;;;;5073204;28;20363;-40
2022/03/26 07:40:45;;;;;;;;;;;21.10;38.70;;;;;;5054938;28;19931;-41
2022/03/26 07:43:12;;;;;;;;;;;21.10;38.70;;;;;;5076583;28;19928;-39
2022/03/26 07:45:39;;;;;;;;;;;21.10;38.70;;;;;;5058813;28;19968;-40
2022/03/26 07:48:06;;;;;;;;;;;21.10;38.60;;;;;;5077325;28;20019;-40
2022/03/26 07:50:33;;;;;;;;;;;21.10;38.60;;;;;;5076642;28;19970;-39
2022/03/26 07:53:00;;;;;;;;;;;21.10;38.60;;;;;;5076367;28;20364;-39
2022/03/26 07:55:27;;;;;;;;;;;21.10;38.60;;;;;;5074762;28;20015;-40
2022/03/26 07:57:54;;;;;;;;;;;21.10;38.60;;;;;;5076187;28;19971;-40
2022/03/26 08:00:21;;;;;;;;;;;21.10;38.50;;;;;;5076482;28;20330;-39
2022/03/26 08:02:48;;;;;;;;;;;21.10;38.50;;;;;;5076415;28;19968;-39
2022/03/26 08:05:15;;;;;;;;;;;21.10;38.50;;;;;;5076186;28;19975;-39
2022/03/26 08:07:42;;;;;;;;;;;21.10;38.50;;;;;;5076168;28;19983;-39
2022/03/26 08:10:09;;;;;;;;;;;21.10;38.40;;;;;;5074619;28;20429;-40
2022/03/26 08:12:36;;;;;;;;;;;21.10;38.40;;;;;;5076344;28;19929;-39
2022/03/26 08:15:04;;;;;;;;;;;21.10;38.40;;;;;;5075946;28;19924;-40
2022/03/26 08:17:31;;;;;;;;;;;21.20;38.50;;;;;;5058174;28;19925;-43
2022/03/26 08:19:57;;;;;;;;;;;21.20;38.40;;;;;;5076762;28;19924;-40
2022/03/26 08:22:24;;;;;;;;;;;21.20;38.40;;;;;;5076172;28;19976;-47
2022/03/26 08:24:51;;;;;;;;;;;21.20;38.40;;;;;;5074382;28;20383;-46
2022/03/26 08:27:19;;;;;;;;;;;21.20;38.40;;;;;;5075796;28;19978;-48
2022/03/26 08:29:46;;;;;;;;;;;21.20;38.30;;;;;;5075749;28;19947;-48
2022/03/26 08:32:13;;;;;;;;;;;21.20;38.30;;;;;;5075713;28;20434;-47
2022/03/26 08:34:41;;;;;;;;;;;21.20;38.20;;;;;;5075483;28;19924;-47
2022/03/26 08:37:08;;;;;;;;;;;21.20;38.20;;;;;;5075891;28;19967;-45
2022/03/26 08:39:35;;;;;;;;;;;21.20;38.20;;;;;;5075509;28;20023;-48
2022/03/26 08:42:03;;;;;;;;;;;21.20;38.10;;;;;;5074665;28;20373;-45
2022/03/26 08:44:30;;;;;;;;;;;21.30;38.20;;;;;;5075474;28;19974;-50
2022/03/26 08:46:57;;;;;;;;;;;21.30;38.20;;;;;;5075411;28;19955;-48
2022/03/26 08:49:26;;;;;;;;;;;21.30;38.10;;;;;;5075277;28;19932;-40
2022/03/26 08:51:53;;;;;;;;;;;21.30;38.10;;;;;;5074520;28;19925;-47
2022/03/26 08:54:20;;;;;;;;;;;21.30;38.10;;;;;;5075216;28;20467;-46
2022/03/26 08:56:47;;;;;;;;;;;21.30;38.10;;;;;;5057247;28;19931;-43
2022/03/26 08:59:14;;;;;;;;;;;21.30;38.10;;;;;;5055500;28;19979;-47
2022/03/26 09:01:41;;;;;;;;;;;21.30;38.10;;;;;;5055159;28;19925;-46
2022/03/26 09:04:11;;;;;;;;;;;21.40;38.10;;;;;;5055271;28;19999;-47
2022/03/26 09:06:38;;;;;;;;;;;21.40;38.10;;;;;;5055377;28;20335;-45
2022/03/26 09:09:05;;;;;;;;;;;21.40;38.10;;;;;;5055002;28;19979;-48
2022/03/26 09:11:34;;;;;;;;;;;21.40;38.00;;;;;;5066551;28;20351;-40
2022/03/26 09:14:02;;;;;;;;;;;21.40;38.00;;;;;;5075627;28;19924;-46
2022/03/26 09:16:30;;;;;;;;;;;21.40;38.00;;;;;;5074717;28;19925;-43
2022/03/26 09:18:58;;;;;;;;;;;21.50;38.00;;;;;;5074796;28;19924;-41
2022/03/26 09:21:25;;;;;;;;;;;21.50;38.00;;;;;;5074567;28;19964;-42
2022/03/26 09:23:51;;;;;;;;;;;21.50;38.00;;;;;;5074946;28;19956;-40
2022/03/26 09:26:18;;;;;;;;;;;21.50;38.00;;;;;;5063368;28;19924;-50
2022/03/26 09:28:46;;;;;;;;;;;21.50;37.90;;;;;;5037045;28;19931;-40
2022/03/26 09:31:13;;;;;;;;;;;21.60;38.00;;;;;;5054819;28;20335;-41
2022/03/26 09:33:40;;;;;;;;;;;21.60;37.90;;;;;;5054413;28;19931;-41
2022/03/26 09:36:08;;;;;;;;;;;21.60;37.90;;;;;;5054665;28;19929;-40
2022/03/26 09:38:35;;;;;;;;;;;21.60;37.90;;;;;;5054761;28;19925;-44
2022/03/26 09:41:04;;;;;;;;;;;21.60;37.90;;;;;;5059984;28;19925;-40
2022/03/26 09:43:36;;;;;;;;;;;21.60;37.90;;;;;;5074691;28;20300;-41
2022/03/26 09:46:05;;;;;;;;;;;21.70;37.90;;;;;;5074262;28;19982;-42
2022/03/26 09:48:32;;;;;;;;;;;21.70;38.60;;;;;;5074227;28;20023;-41
2022/03/26 09:51:01;;;;;;;;;;;21.70;37.90;;;;;;5073913;28;20380;-40
2022/03/26 09:53:28;;;;;;;;;;;21.70;37.90;;;;;;5074076;28;20308;-41
2022/03/26 09:55:55;;;;;;;;;;;21.70;37.80;;;;;;5069071;28;19988;-43
2022/03/26 09:58:22;;;;;;;;;;;21.70;37.80;;;;;;5054400;28;19968;-41
2022/03/26 10:00:49;;;;;;;;;;;21.80;37.90;;;;;;5054067;28;20407;-41
2022/03/26 10:03:16;;;;;;;;;;;21.80;37.80;;;;;;5053898;28;19931;-40
2022/03/26 10:05:44;;;;;;;;;;;21.80;37.90;;;;;;5053973;28;19925;-40
2022/03/26 10:08:14;;;;;;;;;;;21.80;37.80;;;;;;5054153;28;19925;-40
2022/03/26 10:10:45;;;;;;;;;;;21.80;37.80;;;;;;5053809;28;20353;-43
2022/03/26 10:13:12;;;;;;;;;;;21.80;37.80;;;;;;5054173;28;19928;-41
2022/03/26 10:15:58;;;;;;;;;;;21.80;37.80;;;;;;5054003;28;20284;-41
2022/03/26 10:18:25;;;;;;;;;;;21.80;37.70;;;;;;5054064;28;19924;-40
2022/03/26 10:20:59;;;;;;;;;;;21.90;37.90;;;;;;5053615;28;19929;-40
2022/03/26 10:23:27;;;;;;;;;;;21.90;37.90;;;;;;5053997;28;19924;-43
2022/03/26 10:26:23;;;;;;;;;;;21.90;37.80;;;;;;5053734;28;19971;-42
2022/03/26 10:28:54;;;;;;;;;;;21.90;37.80;;;;;;5011609;28;20325;-43
2022/03/26 10:34:25;;;;;;;;;;;22.00;37.90;;;;;;5011527;28;19930;-40
2022/03/26 10:36:56;;;;;;;;;;;22.00;37.90;;;;;;5011790;28;19980;-40
2022/03/26 10:39:27;;;;;;;;;;;22.00;37.90;;;;;;5011954;28;19965;-41
2022/03/26 10:41:54;;;;;;;;;;;22.00;37.90;;;;;;5010748;28;19929;-43
2022/03/26 10:44:28;;;;;;;;;;;22.00;37.90;;;;;;5011726;28;19929;-41
2022/03/26 10:47:00;;;;;;;;;;;22.00;37.90;;;;;;5011965;28;19929;-44
2022/03/26 10:49:32;;;;;;;;;;;22.00;37.90;;;;;;5011717;28;19973;-41
2022/03/26 10:52:10;;;;;;;;;;;22.00;37.90;;;;;;5011498;28;19925;-41
2022/03/26 10:54:37;;;;;;;;;;;22.00;37.90;;;;;;5011681;28;19930;-40
2022/03/26 10:57:05;;;;;;;;;;;22.10;37.90;;;;;;5010102;28;20041;-40
2022/03/26 10:59:32;;;;;;;;;;;22.10;37.90;;;;;;5011804;28;19925;-47
2022/03/26 11:01:59;;;;;;;;;;;22.10;37.90;;;;;;5011603;28;19976;-46
2022/03/26 11:04:28;;;;;;;;;;;22.10;37.90;;;;;;5017914;28;19924;-41
2022/03/26 11:06:55;;;;;;;;;;;22.10;37.90;;;;;;5053230;28;19924;-39
2022/03/26 11:09:22;;;;;;;;;;;22.10;37.90;;;;;;5053179;28;20421;-39
2022/03/26 11:11:50;;;;;;;;;;;22.10;37.90;;;;;;5057663;28;19924;-39
2022/03/26 11:14:21;;;;;;;;;;;22.10;37.90;;;;;;5073153;28;19978;-41
2022/03/26 11:16:48;;;;;;;;;;;22.10;37.90;;;;;;5076623;28;19925;-41
2022/03/26 11:19:38;;;;;;;;;;;22.20;38.00;;;;;;5077065;28;19970;-39
2022/03/26 11:22:08;;;;;;;;;;;22.20;38.00;;;;;;5068714;28;19999;-40
2022/03/26 11:24:53;;;;;;;;;;;22.20;38.00;;;;;;5077281;28;19924;-39
2022/03/26 11:27:35;;;;;;;;;;;22.20;38.00;;;;;;5075738;28;20015;-40
2022/03/26 11:30:03;;;;;;;;;;;22.20;38.00;;;;;;5077180;28;20019;-41
2022/03/26 11:32:35;;;;;;;;;;;22.20;37.90;;;;;;5076990;28;20283;-39
2022/03/26 11:35:03;;;;;;;;;;;22.20;37.90;;;;;;5076833;28;19970;-41
2022/03/26 11:37:30;;;;;;;;;;;22.20;37.90;;;;;;5077050;28;19974;-39
2022/03/26 11:39:57;;;;;;;;;;;22.20;37.90;;;;;;5076672;28;19974;-39
2022/03/26 11:42:30;;;;;;;;;;;22.30;38.00;;;;;;5075545;28;19964;-47
2022/03/26 11:50:48;;;;;;;;;;;22.30;37.90;;;;;;5076667;28;20307;-48
2022/03/26 11:53:34;;;;;;;;;;;22.30;37.90;;;;;;5076451;28;19925;-48
2022/03/26 11:56:03;;;;;;;;;;;22.30;37.90;;;;;;5076663;28;19994;-48
2022/03/26 11:58:30;;;;;;;;;;;22.30;37.90;;;;;;5060627;28;20026;-48
2022/03/26 12:01:02;;;;;;;;;;;22.30;37.90;;;;;;5056627;28;20339;-49
2022/03/26 12:03:30;;;;;;;;;;;22.30;37.90;;;;;;5056456;28;19979;-43
2022/03/26 12:08:50;;;;;;;;;;;22.30;37.90;;;;;;5056224;28;19974;-48
2022/03/26 12:11:20;;;;;;;;;;;22.40;38.00;;;;;;5056425;28;19929;-46
2022/03/26 12:14:01;;;;;;;;;;;22.40;38.00;;;;;;5071101;28;19928;-46
2022/03/26 12:16:46;;;;;;;;;;;22.40;38.00;;;;;;5075953;28;19924;-46
2022/03/26 12:19:34;;;;;;;;;;;22.40;38.00;;;;;;5075982;28;19924;-42
2022/03/26 12:22:17;;;;;;;;;;;22.40;38.00;;;;;;5075929;28;19929;-40
2022/03/26 12:24:45;;;;;;;;;;;22.40;38.00;;;;;;5075936;28;19931;-39
2022/03/26 12:27:13;;;;;;;;;;;22.40;38.00;;;;;;5074295;28;19967;-42
2022/03/26 12:29:40;;;;;;;;;;;22.40;38.00;;;;;;5076062;28;20031;-40
2022/03/26 12:32:07;;;;;;;;;;;22.40;38.00;;;;;;5058340;28;19968;-39
2022/03/26 12:34:34;;;;;;;;;;;22.40;38.00;;;;;;5075592;28;19963;-49
2022/03/26 12:37:02;;;;;;;;;;;22.40;38.00;;;;;;5075900;28;19964;-39
2022/03/26 12:39:29;;;;;;;;;;;22.40;38.00;;;;;;5075913;28;19993;-43
2022/03/26 12:41:57;;;;;;;;;;;22.40;38.00;;;;;;5075519;28;19925;-41
2022/03/26 12:44:24;;;;;;;;;;;22.40;38.00;;;;;;5074423;28;19924;-41
2022/03/26 12:46:55;;;;;;;;;;;22.40;38.00;;;;;;5075727;28;19924;-39
2022/03/26 12:49:22;;;;;;;;;;;22.50;38.10;;;;;;5075766;28;19964;-39
2022/03/26 12:51:50;;;;;;;;;;;22.40;38.00;;;;;;5075150;28;20376;-44
2022/03/26 12:54:17;;;;;;;;;;;22.50;38.00;;;;;;5075341;28;19978;-39
2022/03/26 12:56:44;;;;;;;;;;;22.50;38.00;;;;;;5075202;28;19932;-39
2022/03/26 12:59:14;;;;;;;;;;;22.40;38.00;;;;;;5073670;28;19947;-44
2022/03/26 13:01:42;;;;;;;;;;;22.50;38.00;;;;;;5075477;28;20334;-45
2022/03/26 13:04:09;;;;;;;;;;;22.50;38.10;;;;;;5074963;28;19971;-44
2022/03/26 13:06:37;;;;;;;;;;;22.50;38.00;;;;;;5075077;28;19929;-40
2022/03/26 13:09:05;;;;;;;;;;;22.50;38.00;;;;;;5057426;28;20471;-40
2022/03/26 13:11:33;;;;;;;;;;;22.50;38.10;;;;;;5074936;28;19924;-47
2022/03/26 13:14:01;;;;;;;;;;;22.50;38.10;;;;;;5073384;28;19924;-41
2022/03/26 13:16:29;;;;;;;;;;;22.50;38.10;;;;;;5074677;28;19974;-42
2022/03/26 13:19:04;;;;;;;;;;;22.50;38.10;;;;;;5074806;28;19928;-39
2022/03/26 13:21:32;;;;;;;;;;;22.50;38.10;;;;;;5074438;28;19974;-40
2022/03/26 13:24:00;;;;;;;;;;;22.50;38.10;;;;;;5074704;28;20372;-39
2022/03/26 13:26:58;;;;;;;;;;;22.50;38.10;;;;;;5074689;28;19931;-41
2022/03/26 13:29:32;;;;;;;;;;;22.50;38.10;;;;;;5058440;28;19982;-40
2022/03/26 13:32:07;;;;;;;;;;;22.50;38.00;;;;;;5054871;28;19925;-41
2022/03/26 13:34:35;;;;;;;;;;;22.50;38.00;;;;;;5054442;28;19925;-39
2022/03/26 13:37:08;;;;;;;;;;;22.50;38.00;;;;;;5054721;28;19971;-39
2022/03/26 13:39:35;;;;;;;;;;;22.50;38.00;;;;;;5054260;28;19971;-44
2022/03/26 13:42:09;;;;;;;;;;;22.50;38.00;;;;;;5054348;28;19987;-40
2022/03/26 13:44:37;;;;;;;;;;;22.50;38.00;;;;;;5068599;28;19947;-43
2022/03/26 13:47:04;;;;;;;;;;;22.50;38.00;;;;;;5074545;28;20301;-40
2022/03/26 13:49:32;;;;;;;;;;;22.50;38.00;;;;;;5074199;28;19924;-40
2022/03/26 13:52:06;;;;;;;;;;;22.50;38.00;;;;;;5074335;28;19986;-39
2022/03/26 13:54:34;;;;;;;;;;;22.50;38.00;;;;;;5074047;28;19976;-39
2022/03/26 13:57:02;;;;;;;;;;;22.50;38.00;;;;;;5074016;28;19925;-39
2022/03/26 13:59:34;;;;;;;;;;;22.50;38.00;;;;;;5060927;28;20007;-44
2022/03/26 14:02:06;;;;;;;;;;;22.50;38.00;;;;;;5054021;28;19925;-39
2022/03/26 14:04:35;;;;;;;;;;;22.50;38.00;;;;;;5054158;28;19928;-40
2022/03/26 14:07:05;;;;;;;;;;;22.50;38.00;;;;;;5054747;28;19925;-40
2022/03/26 14:09:31;;;;;;;;;;;22.50;38.00;;;;;;5053849;28;19975;-40
2022/03/26 14:11:59;;;;;;;;;;;22.50;38.00;;;;;;5054697;28;19980;-44
2022/03/26 14:14:26;;;;;;;;;;;22.50;38.00;;;;;;5063732;28;20023;-40
2022/03/26 14:16:53;;;;;;;;;;;22.50;38.00;;;;;;5073774;28;19928;-40
2022/03/26 14:19:21;;;;;;;;;;;22.50;38.00;;;;;;5074081;28;20260;-39
2022/03/26 14:21:51;;;;;;;;;;;22.50;38.00;;;;;;5073392;28;20380;-44
2022/03/26 14:24:18;;;;;;;;;;;22.50;38.00;;;;;;5073719;28;19932;-40
2022/03/26 14:26:45;;;;;;;;;;;22.50;38.10;;;;;;5074019;28;19974;-40
2022/03/26 14:29:12;;;;;;;;;;;22.50;38.00;;;;;;5072213;28;19955;-43
2022/03/26 14:31:39;;;;;;;;;;;22.50;38.00;;;;;;5073981;28;19985;-39
2022/03/26 14:34:06;;;;;;;;;;;22.50;38.00;;;;;;5073801;28;19951;-40